sensor_id;sensor_type;location;lat;lon;timestamp;temperature;humidity
11025;DHT22;22890;51.820;8.682;2022-11-14T00:08:21;5.10;99.90
11025;DHT22;22890;51.820;8.682;2022-11-14T00:10:49;5.00;99.90
11025;DHT22;22890;51.820;8.682;2022-11-14T00:13:18;4.90;99.90
11025;DHT22;22890;51.820;8.682;2022-11-14T00:15:48;4.80;99.90
11025;DHT22;22890;51.820;8.682;2022-11-14T00:18:16;4.80;99.90
11025;DHT22;22890;51.820;8.682;2022-11-14T00:40:19;4.60;99.90
11025;DHT22;22890;51.820;8.682;2022-11-14T00:50:07;4.50;99.90
11025;DHT22;22890;51.820;8.682;2022-11-14T00:52:33;4.40;99.90
11025;DHT22;22890;51.820;8.682;2022-11-14T01:02:22;4.40;99.90
11025;DHT22;22890;51.820;8.682;2022-11-14T01:14:38;4.30;99.90
11025;DHT22;22890;51.820;8.682;2022-11-14T01:24:33;4.00;99.90
11025;DHT22;22890;51.820;8.682;2022-11-14T01:27:00;3.90;99.90
11025;DHT22;22890;51.820;8.682;2022-11-14T01:31:54;3.90;99.90
11025;DHT22;22890;51.820;8.682;2022-11-14T01:41:42;3.70;99.90
11025;DHT22;22890;51.820;8.682;2022-11-14T01:44:16;3.70;99.90
11025;DHT22;22890;51.820;8.682;2022-11-14T01:46:46;3.70;99.90
11025;DHT22;22890;51.820;8.682;2022-11-14T01:49:21;3.60;99.90
11025;DHT22;22890;51.820;8.682;2022-11-14T01:51:53;3.50;99.90
11025;DHT22;22890;51.820;8.682;2022-11-14T01:54:28;3.50;99.90
11025;DHT22;22890;51.820;8.682;2022-11-14T01:56:58;3.50;99.90
11025;DHT22;22890;51.820;8.682;2022-11-14T01:59:31;3.50;99.90
11025;DHT22;22890;51.820;8.682;2022-11-14T02:02:04;3.60;99.90
11025;DHT22;22890;51.820;8.682;2022-11-14T02:04:34;3.60;99.90
11025;DHT22;22890;51.820;8.682;2022-11-14T02:07:04;3.50;99.90
11025;DHT22;22890;51.820;8.682;2022-11-14T02:09:35;3.50;99.90
11025;DHT22;22890;51.820;8.682;2022-11-14T02:12:05;3.50;99.90
11025;DHT22;22890;51.820;8.682;2022-11-14T02:14:33;3.40;99.90
11025;DHT22;22890;51.820;8.682;2022-11-14T02:24:44;3.40;99.90
11025;DHT22;22890;51.820;8.682;2022-11-14T02:27:12;3.40;99.90
11025;DHT22;22890;51.820;8.682;2022-11-14T02:32:06;3.30;99.90
11025;DHT22;22890;51.820;8.682;2022-11-14T02:34:37;3.30;99.90
11025;DHT22;22890;51.820;8.682;2022-11-14T02:37:04;3.40;99.90
11025;DHT22;22890;51.820;8.682;2022-11-14T02:39:31;3.50;99.90
11025;DHT22;22890;51.820;8.682;2022-11-14T02:41:57;3.50;99.90
11025;DHT22;22890;51.820;8.682;2022-11-14T02:44:24;3.60;99.90
11025;DHT22;22890;51.820;8.682;2022-11-14T02:46:51;3.70;99.90
11025;DHT22;22890;51.820;8.682;2022-11-14T02:49:17;3.80;99.90
11025;DHT22;22890;51.820;8.682;2022-11-14T02:51:44;4.00;99.90
11025;DHT22;22890;51.820;8.682;2022-11-14T02:54:11;4.10;99.90
11025;DHT22;22890;51.820;8.682;2022-11-14T02:56:37;4.20;99.90
11025;DHT22;22890;51.820;8.682;2022-11-14T02:59:05;4.30;99.90
11025;DHT22;22890;51.820;8.682;2022-11-14T03:01:31;4.40;99.90
11025;DHT22;22890;51.820;8.682;2022-11-14T03:03:58;4.50;99.90
11025;DHT22;22890;51.820;8.682;2022-11-14T03:06:24;4.60;99.90
11025;DHT22;22890;51.820;8.682;2022-11-14T03:08:51;4.70;99.90
11025;DHT22;22890;51.820;8.682;2022-11-14T03:11:18;4.80;99.90
11025;DHT22;22890;51.820;8.682;2022-11-14T03:13:44;4.80;99.90
11025;DHT22;22890;51.820;8.682;2022-11-14T03:16:12;4.80;99.90
11025;DHT22;22890;51.820;8.682;2022-11-14T03:18:40;5.00;99.90
11025;DHT22;22890;51.820;8.682;2022-11-14T03:21:08;5.00;99.90
11025;DHT22;22890;51.820;8.682;2022-11-14T03:23:35;5.10;99.90
11025;DHT22;22890;51.820;8.682;2022-11-14T03:26:03;5.20;99.90
11025;DHT22;22890;51.820;8.682;2022-11-14T03:28:30;5.20;99.90
11025;DHT22;22890;51.820;8.682;2022-11-14T03:30:57;5.20;99.90
11025;DHT22;22890;51.820;8.682;2022-11-14T03:33:24;5.20;99.90
11025;DHT22;22890;51.820;8.682;2022-11-14T03:35:51;5.30;99.90
11025;DHT22;22890;51.820;8.682;2022-11-14T03:38:18;5.30;99.90
11025;DHT22;22890;51.820;8.682;2022-11-14T03:40:51;5.30;99.90
11025;DHT22;22890;51.820;8.682;2022-11-14T03:43:19;5.30;99.90
11025;DHT22;22890;51.820;8.682;2022-11-14T03:45:46;5.30;99.90
11025;DHT22;22890;51.820;8.682;2022-11-14T03:48:13;5.30;99.90
11025;DHT22;22890;51.820;8.682;2022-11-14T03:50:40;5.30;99.90
11025;DHT22;22890;51.820;8.682;2022-11-14T03:53:07;5.40;99.90
11025;DHT22;22890;51.820;8.682;2022-11-14T03:55:34;5.40;99.90
11025;DHT22;22890;51.820;8.682;2022-11-14T03:58:01;5.40;99.90
11025;DHT22;22890;51.820;8.682;2022-11-14T04:00:27;5.50;99.90
11025;DHT22;22890;51.820;8.682;2022-11-14T04:02:55;5.50;99.90
11025;DHT22;22890;51.820;8.682;2022-11-14T04:05:22;5.50;99.90
11025;DHT22;22890;51.820;8.682;2022-11-14T04:07:49;5.50;99.90
11025;DHT22;22890;51.820;8.682;2022-11-14T04:10:16;5.50;99.90
11025;DHT22;22890;51.820;8.682;2022-11-14T04:12:51;5.50;99.90
11025;DHT22;22890;51.820;8.682;2022-11-14T04:15:19;5.50;99.90
11025;DHT22;22890;51.820;8.682;2022-11-14T04:17:46;5.50;99.90
11025;DHT22;22890;51.820;8.682;2022-11-14T04:20:13;5.50;99.90
11025;DHT22;22890;51.820;8.682;2022-11-14T04:22:40;5.40;99.90
11025;DHT22;22890;51.820;8.682;2022-11-14T04:25:07;5.40;99.90
11025;DHT22;22890;51.820;8.682;2022-11-14T04:27:34;5.40;99.90
11025;DHT22;22890;51.820;8.682;2022-11-14T04:30:01;5.30;99.90
11025;DHT22;22890;51.820;8.682;2022-11-14T04:32:27;5.30;99.90
11025;DHT22;22890;51.820;8.682;2022-11-14T04:34:54;5.30;99.90
11025;DHT22;22890;51.820;8.682;2022-11-14T04:37:21;5.30;99.90
11025;DHT22;22890;51.820;8.682;2022-11-14T04:39:47;5.30;99.90
11025;DHT22;22890;51.820;8.682;2022-11-14T04:42:14;5.30;99.90
11025;DHT22;22890;51.820;8.682;2022-11-14T04:44:41;5.30;99.90
11025;DHT22;22890;51.820;8.682;2022-11-14T04:47:07;5.30;99.90
11025;DHT22;22890;51.820;8.682;2022-11-14T04:49:34;5.20;99.90
11025;DHT22;22890;51.820;8.682;2022-11-14T04:52:01;5.30;99.90
11025;DHT22;22890;51.820;8.682;2022-11-14T04:54:28;5.20;99.90
11025;DHT22;22890;51.820;8.682;2022-11-14T04:56:55;5.20;99.90
11025;DHT22;22890;51.820;8.682;2022-11-14T04:59:21;5.20;99.90
11025;DHT22;22890;51.820;8.682;2022-11-14T05:01:48;5.20;99.90
11025;DHT22;22890;51.820;8.682;2022-11-14T05:04:15;5.20;99.90
11025;DHT22;22890;51.820;8.682;2022-11-14T05:06:41;5.20;99.90
11025;DHT22;22890;51.820;8.682;2022-11-14T05:09:08;5.30;99.90
11025;DHT22;22890;51.820;8.682;2022-11-14T05:11:35;5.20;99.90
11025;DHT22;22890;51.820;8.682;2022-11-14T05:14:01;5.30;99.90
11025;DHT22;22890;51.820;8.682;2022-11-14T05:16:28;5.30;99.90
11025;DHT22;22890;51.820;8.682;2022-11-14T05:18:55;5.30;99.90
11025;DHT22;22890;51.820;8.682;2022-11-14T05:21:21;5.30;99.90
11025;DHT22;22890;51.820;8.682;2022-11-14T05:23:48;5.20;99.90
11025;DHT22;22890;51.820;8.682;2022-11-14T05:26:16;5.20;99.90
11025;DHT22;22890;51.820;8.682;2022-11-14T05:28:43;5.20;99.90
11025;DHT22;22890;51.820;8.682;2022-11-14T05:31:12;5.20;99.90
11025;DHT22;22890;51.820;8.682;2022-11-14T05:33:40;5.20;99.90
11025;DHT22;22890;51.820;8.682;2022-11-14T05:36:12;5.20;99.90
11025;DHT22;22890;51.820;8.682;2022-11-14T05:38:40;5.20;99.90
11025;DHT22;22890;51.820;8.682;2022-11-14T05:41:12;5.20;99.90
11025;DHT22;22890;51.820;8.682;2022-11-14T05:43:39;5.20;99.90
11025;DHT22;22890;51.820;8.682;2022-11-14T05:46:09;5.20;99.90
11025;DHT22;22890;51.820;8.682;2022-11-14T05:48:35;5.10;99.90
11025;DHT22;22890;51.820;8.682;2022-11-14T05:51:04;5.10;99.90
11025;DHT22;22890;51.820;8.682;2022-11-14T05:53:31;5.10;99.90
11025;DHT22;22890;51.820;8.682;2022-11-14T05:56:06;5.10;99.90
11025;DHT22;22890;51.820;8.682;2022-11-14T05:58:33;5.00;99.90
11025;DHT22;22890;51.820;8.682;2022-11-14T06:01:02;5.00;99.90
11025;DHT22;22890;51.820;8.682;2022-11-14T06:03:31;5.00;99.90
11025;DHT22;22890;51.820;8.682;2022-11-14T06:06:00;5.00;99.90
11025;DHT22;22890;51.820;8.682;2022-11-14T06:08:28;5.00;99.90
11025;DHT22;22890;51.820;8.682;2022-11-14T06:11:04;4.90;99.90
11025;DHT22;22890;51.820;8.682;2022-11-14T06:13:31;4.90;99.90
11025;DHT22;22890;51.820;8.682;2022-11-14T06:16:03;4.90;99.90
11025;DHT22;22890;51.820;8.682;2022-11-14T06:18:30;4.90;99.90
11025;DHT22;22890;51.820;8.682;2022-11-14T06:21:32;4.80;99.90
11025;DHT22;22890;51.820;8.682;2022-11-14T06:23:52;4.60;99.90
11025;DHT22;22890;51.820;8.682;2022-11-14T06:26:29;4.50;99.90
11025;DHT22;22890;51.820;8.682;2022-11-14T06:28:57;4.50;99.90
11025;DHT22;22890;51.820;8.682;2022-11-14T06:31:25;4.50;99.90
11025;DHT22;22890;51.820;8.682;2022-11-14T06:33:52;4.50;99.90
11025;DHT22;22890;51.820;8.682;2022-11-14T06:36:19;4.50;99.90
11025;DHT22;22890;51.820;8.682;2022-11-14T06:38:45;4.60;99.90
11025;DHT22;22890;51.820;8.682;2022-11-14T06:41:15;4.60;99.90
11025;DHT22;22890;51.820;8.682;2022-11-14T06:43:44;4.60;99.90
11025;DHT22;22890;51.820;8.682;2022-11-14T06:46:13;4.60;99.90
11025;DHT22;22890;51.820;8.682;2022-11-14T06:48:41;4.60;99.90
11025;DHT22;22890;51.820;8.682;2022-11-14T06:51:10;4.70;99.90
11025;DHT22;22890;51.820;8.682;2022-11-14T06:53:37;4.70;99.90
11025;DHT22;22890;51.820;8.682;2022-11-14T06:58:38;4.40;99.90
11025;DHT22;22890;51.820;8.682;2022-11-14T07:01:24;4.30;99.90
11025;DHT22;22890;51.820;8.682;2022-11-14T07:03:54;4.30;99.90
11025;DHT22;22890;51.820;8.682;2022-11-14T07:06:24;4.40;99.90
11025;DHT22;22890;51.820;8.682;2022-11-14T07:08:52;4.40;99.90
11025;DHT22;22890;51.820;8.682;2022-11-14T07:11:25;4.30;99.90
11025;DHT22;22890;51.820;8.682;2022-11-14T07:14:00;4.30;99.90
11025;DHT22;22890;51.820;8.682;2022-11-14T07:16:30;4.30;99.90
11025;DHT22;22890;51.820;8.682;2022-11-14T07:18:58;4.30;99.90
11025;DHT22;22890;51.820;8.682;2022-11-14T07:21:26;4.30;99.90
11025;DHT22;22890;51.820;8.682;2022-11-14T07:23:54;4.30;99.90
11025;DHT22;22890;51.820;8.682;2022-11-14T07:26:21;4.40;99.90
11025;DHT22;22890;51.820;8.682;2022-11-14T07:28:48;4.40;99.90
11025;DHT22;22890;51.820;8.682;2022-11-14T07:31:20;4.40;99.90
11025;DHT22;22890;51.820;8.682;2022-11-14T07:33:47;4.40;99.90
11025;DHT22;22890;51.820;8.682;2022-11-14T07:36:14;4.40;99.90
11025;DHT22;22890;51.820;8.682;2022-11-14T07:38:42;4.40;99.90
11025;DHT22;22890;51.820;8.682;2022-11-14T07:41:13;4.40;99.90
11025;DHT22;22890;51.820;8.682;2022-11-14T07:43:41;4.40;99.90
11025;DHT22;22890;51.820;8.682;2022-11-14T07:46:09;4.40;99.90
11025;DHT22;22890;51.820;8.682;2022-11-14T07:48:37;4.40;99.90
11025;DHT22;22890;51.820;8.682;2022-11-14T07:51:06;4.40;99.90
11025;DHT22;22890;51.820;8.682;2022-11-14T07:53:33;4.40;99.90
11025;DHT22;22890;51.820;8.682;2022-11-14T07:56:05;4.50;99.90
11025;DHT22;22890;51.820;8.682;2022-11-14T07:58:34;4.50;99.90
11025;DHT22;22890;51.820;8.682;2022-11-14T08:01:02;4.50;99.90
11025;DHT22;22890;51.820;8.682;2022-11-14T08:03:30;4.40;99.90
11025;DHT22;22890;51.820;8.682;2022-11-14T08:06:08;4.50;99.90
11025;DHT22;22890;51.820;8.682;2022-11-14T08:08:35;4.50;99.90
11025;DHT22;22890;51.820;8.682;2022-11-14T08:11:02;4.60;99.90
11025;DHT22;22890;51.820;8.682;2022-11-14T08:13:29;4.60;99.90
11025;DHT22;22890;51.820;8.682;2022-11-14T08:16:06;4.60;99.90
11025;DHT22;22890;51.820;8.682;2022-11-14T08:18:39;4.60;99.90
11025;DHT22;22890;51.820;8.682;2022-11-14T08:21:06;4.70;99.90
11025;DHT22;22890;51.820;8.682;2022-11-14T08:23:33;4.80;99.90
11025;DHT22;22890;51.820;8.682;2022-11-14T08:25:59;4.90;99.90
11025;DHT22;22890;51.820;8.682;2022-11-14T08:28:26;4.90;99.90
11025;DHT22;22890;51.820;8.682;2022-11-14T08:31:00;5.10;99.90
11025;DHT22;22890;51.820;8.682;2022-11-14T08:33:28;5.00;99.90
11025;DHT22;22890;51.820;8.682;2022-11-14T08:35:54;5.10;99.90
11025;DHT22;22890;51.820;8.682;2022-11-14T08:38:21;5.20;99.90
11025;DHT22;22890;51.820;8.682;2022-11-14T08:40:47;5.20;99.90
11025;DHT22;22890;51.820;8.682;2022-11-14T08:43:14;5.30;99.90
11025;DHT22;22890;51.820;8.682;2022-11-14T08:45:41;5.30;99.90
11025;DHT22;22890;51.820;8.682;2022-11-14T08:48:07;5.40;99.90
11025;DHT22;22890;51.820;8.682;2022-11-14T08:50:34;5.50;99.90
11025;DHT22;22890;51.820;8.682;2022-11-14T08:53:00;5.50;99.90
11025;DHT22;22890;51.820;8.682;2022-11-14T08:55:27;5.60;99.90
11025;DHT22;22890;51.820;8.682;2022-11-14T08:57:54;5.70;99.90
11025;DHT22;22890;51.820;8.682;2022-11-14T09:00:21;5.80;99.90
11025;DHT22;22890;51.820;8.682;2022-11-14T09:02:47;5.80;99.90
11025;DHT22;22890;51.820;8.682;2022-11-14T09:05:14;5.90;99.90
11025;DHT22;22890;51.820;8.682;2022-11-14T09:07:41;6.00;99.90
11025;DHT22;22890;51.820;8.682;2022-11-14T09:10:08;6.10;99.90
11025;DHT22;22890;51.820;8.682;2022-11-14T09:12:35;6.20;99.90
11025;DHT22;22890;51.820;8.682;2022-11-14T09:15:02;6.30;99.90
11025;DHT22;22890;51.820;8.682;2022-11-14T09:17:28;6.40;99.90
11025;DHT22;22890;51.820;8.682;2022-11-14T09:19:55;6.40;99.90
11025;DHT22;22890;51.820;8.682;2022-11-14T09:22:21;6.50;99.90
11025;DHT22;22890;51.820;8.682;2022-11-14T09:24:48;6.60;99.90
11025;DHT22;22890;51.820;8.682;2022-11-14T09:27:17;6.70;99.90
11025;DHT22;22890;51.820;8.682;2022-11-14T09:29:44;6.80;99.90
11025;DHT22;22890;51.820;8.682;2022-11-14T09:32:11;6.90;99.90
11025;DHT22;22890;51.820;8.682;2022-11-14T09:34:37;7.00;99.90
11025;DHT22;22890;51.820;8.682;2022-11-14T09:37:08;7.00;99.90
11025;DHT22;22890;51.820;8.682;2022-11-14T09:39:35;7.10;99.90
11025;DHT22;22890;51.820;8.682;2022-11-14T09:42:11;7.20;99.90
11025;DHT22;22890;51.820;8.682;2022-11-14T09:45:03;7.30;99.90
11025;DHT22;22890;51.820;8.682;2022-11-14T09:47:51;7.30;99.90
11025;DHT22;22890;51.820;8.682;2022-11-14T09:50:25;7.40;99.90
11025;DHT22;22890;51.820;8.682;2022-11-14T09:52:55;7.60;99.90
11025;DHT22;22890;51.820;8.682;2022-11-14T09:55:30;7.60;99.90
11025;DHT22;22890;51.820;8.682;2022-11-14T09:58:03;7.70;99.90
11025;DHT22;22890;51.820;8.682;2022-11-14T10:00:50;7.70;99.90
11025;DHT22;22890;51.820;8.682;2022-11-14T10:03:37;7.80;99.90
11025;DHT22;22890;51.820;8.682;2022-11-14T10:08:48;7.90;99.90
11025;DHT22;22890;51.820;8.682;2022-11-14T10:11:22;7.90;99.90
11025;DHT22;22890;51.820;8.682;2022-11-14T10:19:55;8.10;99.90
11025;DHT22;22890;51.820;8.682;2022-11-14T10:25:34;8.20;99.90
11025;DHT22;22890;51.820;8.682;2022-11-14T10:31:28;8.30;99.90
11025;DHT22;22890;51.820;8.682;2022-11-14T10:34:19;8.40;99.90
11025;DHT22;22890;51.820;8.682;2022-11-14T10:37:03;8.30;99.90
11025;DHT22;22890;51.820;8.682;2022-11-14T10:39:43;8.40;99.90
11025;DHT22;22890;51.820;8.682;2022-11-14T10:42:17;8.50;99.90
11025;DHT22;22890;51.820;8.682;2022-11-14T10:44:49;8.50;99.90
11025;DHT22;22890;51.820;8.682;2022-11-14T10:47:20;8.60;99.90
11025;DHT22;22890;51.820;8.682;2022-11-14T10:49:51;8.70;99.90
11025;DHT22;22890;51.820;8.682;2022-11-14T10:52:24;8.70;99.90
11025;DHT22;22890;51.820;8.682;2022-11-14T10:55:08;8.70;99.90
11025;DHT22;22890;51.820;8.682;2022-11-14T10:57:39;8.80;99.90
11025;DHT22;22890;51.820;8.682;2022-11-14T11:00:17;8.80;99.90
11025;DHT22;22890;51.820;8.682;2022-11-14T11:02:51;8.90;99.90
11025;DHT22;22890;51.820;8.682;2022-11-14T11:05:20;8.90;99.90
11025;DHT22;22890;51.820;8.682;2022-11-14T11:07:48;8.90;99.90
11025;DHT22;22890;51.820;8.682;2022-11-14T11:10:57;9.00;99.90
11025;DHT22;22890;51.820;8.682;2022-11-14T11:13:53;9.00;99.90
11025;DHT22;22890;51.820;8.682;2022-11-14T11:16:22;9.10;99.90
11025;DHT22;22890;51.820;8.682;2022-11-14T11:18:50;9.20;99.90
11025;DHT22;22890;51.820;8.682;2022-11-14T11:21:19;9.20;99.90
11025;DHT22;22890;51.820;8.682;2022-11-14T11:23:56;9.30;99.90
11025;DHT22;22890;51.820;8.682;2022-11-14T11:26:29;9.30;99.90
11025;DHT22;22890;51.820;8.682;2022-11-14T11:31:57;9.40;99.90
11025;DHT22;22890;51.820;8.682;2022-11-14T11:34:27;9.40;99.90
11025;DHT22;22890;51.820;8.682;2022-11-14T11:37:20;9.40;99.90
11025;DHT22;22890;51.820;8.682;2022-11-14T11:39:49;9.50;99.90
11025;DHT22;22890;51.820;8.682;2022-11-14T11:42:22;9.50;99.90
11025;DHT22;22890;51.820;8.682;2022-11-14T11:44:54;9.50;99.90
11025;DHT22;22890;51.820;8.682;2022-11-14T11:47:24;9.50;99.90
11025;DHT22;22890;51.820;8.682;2022-11-14T11:49:52;9.60;99.90
11025;DHT22;22890;51.820;8.682;2022-11-14T11:52:32;9.60;99.90
11025;DHT22;22890;51.820;8.682;2022-11-14T11:55:12;9.70;99.90
11025;DHT22;22890;51.820;8.682;2022-11-14T11:57:46;9.70;99.90
11025;DHT22;22890;51.820;8.682;2022-11-14T12:00:19;9.80;99.90
11025;DHT22;22890;51.820;8.682;2022-11-14T12:02:51;9.80;99.90
11025;DHT22;22890;51.820;8.682;2022-11-14T12:05:25;9.90;99.90
11025;DHT22;22890;51.820;8.682;2022-11-14T12:08:01;9.90;99.90
11025;DHT22;22890;51.820;8.682;2022-11-14T12:10:38;10.00;99.90
11025;DHT22;22890;51.820;8.682;2022-11-14T12:15:53;10.00;99.90
11025;DHT22;22890;51.820;8.682;2022-11-14T12:18:34;12.70;99.90
11025;DHT22;22890;51.820;8.682;2022-11-14T12:32:05;10.30;99.90
11025;DHT22;22890;51.820;8.682;2022-11-14T12:34:37;10.30;99.90
11025;DHT22;22890;51.820;8.682;2022-11-14T12:37:32;10.40;99.90
11025;DHT22;22890;51.820;8.682;2022-11-14T12:40:05;10.40;99.90
11025;DHT22;22890;51.820;8.682;2022-11-14T12:42:33;10.40;99.90
11025;DHT22;22890;51.820;8.682;2022-11-14T12:45:00;10.40;99.90
11025;DHT22;22890;51.820;8.682;2022-11-14T12:47:27;10.40;99.90
11025;DHT22;22890;51.820;8.682;2022-11-14T12:58:01;10.50;99.90
11025;DHT22;22890;51.820;8.682;2022-11-14T13:06:02;10.60;99.90
11025;DHT22;22890;51.820;8.682;2022-11-14T13:08:56;10.60;99.90
11025;DHT22;22890;51.820;8.682;2022-11-14T13:11:44;10.60;99.90
11025;DHT22;22890;51.820;8.682;2022-11-14T13:14:31;10.70;99.90
11025;DHT22;22890;51.820;8.682;2022-11-14T13:17:33;10.70;99.90
11025;DHT22;22890;51.820;8.682;2022-11-14T13:20:31;10.70;99.90
11025;DHT22;22890;51.820;8.682;2022-11-14T13:28:50;10.70;99.90
11025;DHT22;22890;51.820;8.682;2022-11-14T13:31:23;10.70;99.90
11025;DHT22;22890;51.820;8.682;2022-11-14T13:33:57;10.70;99.90
11025;DHT22;22890;51.820;8.682;2022-11-14T13:36:49;10.80;99.90
11025;DHT22;22890;51.820;8.682;2022-11-14T13:42:14;10.80;99.90
11025;DHT22;22890;51.820;8.682;2022-11-14T13:47:43;8.50;99.90
11025;DHT22;22890;51.820;8.682;2022-11-14T13:50:23;10.80;99.90
11025;DHT22;22890;51.820;8.682;2022-11-14T13:52:50;10.80;99.90
11025;DHT22;22890;51.820;8.682;2022-11-14T13:55:19;10.90;99.90
11025;DHT22;22890;51.820;8.682;2022-11-14T13:58:36;10.80;99.90
11025;DHT22;22890;51.820;8.682;2022-11-14T14:06:56;10.90;99.90
11025;DHT22;22890;51.820;8.682;2022-11-14T14:10:25;10.90;99.90
11025;DHT22;22890;51.820;8.682;2022-11-14T14:13:06;10.90;99.90
11025;DHT22;22890;51.820;8.682;2022-11-14T14:21:36;10.80;99.90
11025;DHT22;22890;51.820;8.682;2022-11-14T14:26:49;10.90;99.90
11025;DHT22;22890;51.820;8.682;2022-11-14T14:29:43;10.90;99.90
11025;DHT22;22890;51.820;8.682;2022-11-14T14:32:13;10.90;99.90
11025;DHT22;22890;51.820;8.682;2022-11-14T14:34:40;10.90;99.90
11025;DHT22;22890;51.820;8.682;2022-11-14T14:37:19;10.90;99.90
11025;DHT22;22890;51.820;8.682;2022-11-14T14:40:06;10.80;99.90
11025;DHT22;22890;51.820;8.682;2022-11-14T14:42:39;10.80;99.90
11025;DHT22;22890;51.820;8.682;2022-11-14T14:45:17;10.80;99.90
11025;DHT22;22890;51.820;8.682;2022-11-14T14:47:47;10.80;99.90
11025;DHT22;22890;51.820;8.682;2022-11-14T14:50:23;10.80;99.90
11025;DHT22;22890;51.820;8.682;2022-11-14T14:52:56;10.80;99.90
11025;DHT22;22890;51.820;8.682;2022-11-14T14:55:29;10.80;99.90
11025;DHT22;22890;51.820;8.682;2022-11-14T14:58:24;10.70;99.90
11025;DHT22;22890;51.820;8.682;2022-11-14T15:03:25;10.70;99.90
11025;DHT22;22890;51.820;8.682;2022-11-14T15:06:00;10.60;99.90
11025;DHT22;22890;51.820;8.682;2022-11-14T15:08:28;10.60;99.90
11025;DHT22;22890;51.820;8.682;2022-11-14T15:10:58;10.60;99.90
11025;DHT22;22890;51.820;8.682;2022-11-14T15:13:27;10.50;99.90
11025;DHT22;22890;51.820;8.682;2022-11-14T15:15:56;10.50;99.90
11025;DHT22;22890;51.820;8.682;2022-11-14T15:18:29;10.50;99.90
11025;DHT22;22890;51.820;8.682;2022-11-14T15:24:02;10.50;99.90
11025;DHT22;22890;51.820;8.682;2022-11-14T15:26:30;10.50;99.90
11025;DHT22;22890;51.820;8.682;2022-11-14T15:29:17;10.50;99.90
11025;DHT22;22890;51.820;8.682;2022-11-14T15:31:56;10.50;99.90
11025;DHT22;22890;51.820;8.682;2022-11-14T15:34:30;10.40;99.90
11025;DHT22;22890;51.820;8.682;2022-11-14T15:39:39;10.30;99.90
11025;DHT22;22890;51.820;8.682;2022-11-14T15:42:19;10.30;99.90
11025;DHT22;22890;51.820;8.682;2022-11-14T15:44:54;10.20;99.90
11025;DHT22;22890;51.820;8.682;2022-11-14T15:47:26;10.20;99.90
11025;DHT22;22890;51.820;8.682;2022-11-14T15:50:01;10.20;99.90
11025;DHT22;22890;51.820;8.682;2022-11-14T15:52:35;10.10;99.90
11025;DHT22;22890;51.820;8.682;2022-11-14T15:55:09;10.10;99.90
11025;DHT22;22890;51.820;8.682;2022-11-14T15:57:37;10.00;99.90
11025;DHT22;22890;51.820;8.682;2022-11-14T16:00:04;10.00;99.90
11025;DHT22;22890;51.820;8.682;2022-11-14T16:02:32;10.00;99.90
11025;DHT22;22890;51.820;8.682;2022-11-14T16:05:00;9.90;99.90
11025;DHT22;22890;51.820;8.682;2022-11-14T16:12:23;9.70;99.90
11025;DHT22;22890;51.820;8.682;2022-11-14T16:14:49;9.60;99.90
11025;DHT22;22890;51.820;8.682;2022-11-14T16:17:17;9.50;99.90
11025;DHT22;22890;51.820;8.682;2022-11-14T16:19:43;9.50;99.90
11025;DHT22;22890;51.820;8.682;2022-11-14T16:22:16;9.30;99.90
11025;DHT22;22890;51.820;8.682;2022-11-14T16:24:43;9.50;99.90
11025;DHT22;22890;51.820;8.682;2022-11-14T16:29:36;9.50;99.90
11025;DHT22;22890;51.820;8.682;2022-11-14T16:32:03;9.50;99.90
11025;DHT22;22890;51.820;8.682;2022-11-14T16:34:30;9.50;99.90
11025;DHT22;22890;51.820;8.682;2022-11-14T16:36:59;9.50;99.90
11025;DHT22;22890;51.820;8.682;2022-11-14T16:41:59;9.50;99.90
11025;DHT22;22890;51.820;8.682;2022-11-14T16:44:26;9.60;99.90
11025;DHT22;22890;51.820;8.682;2022-11-14T16:46:53;9.60;99.90
11025;DHT22;22890;51.820;8.682;2022-11-14T16:51:48;9.70;99.90
11025;DHT22;22890;51.820;8.682;2022-11-14T16:54:17;9.70;99.90
11025;DHT22;22890;51.820;8.682;2022-11-14T16:56:45;9.80;99.90
11025;DHT22;22890;51.820;8.682;2022-11-14T16:59:12;9.70;99.90
11025;DHT22;22890;51.820;8.682;2022-11-14T17:04:06;9.80;99.90
11025;DHT22;22890;51.820;8.682;2022-11-14T17:06:32;9.80;99.90
11025;DHT22;22890;51.820;8.682;2022-11-14T17:08:59;9.80;99.90
11025;DHT22;22890;51.820;8.682;2022-11-14T17:11:26;9.80;99.90
11025;DHT22;22890;51.820;8.682;2022-11-14T17:13:54;9.80;99.90
11025;DHT22;22890;51.820;8.682;2022-11-14T17:16:21;9.70;99.90
11025;DHT22;22890;51.820;8.682;2022-11-14T17:18:53;9.80;99.90
11025;DHT22;22890;51.820;8.682;2022-11-14T17:21:21;9.80;99.90
11025;DHT22;22890;51.820;8.682;2022-11-14T17:23:56;9.70;99.90
11025;DHT22;22890;51.820;8.682;2022-11-14T17:28:50;9.70;99.90
11025;DHT22;22890;51.820;8.682;2022-11-14T17:33:50;9.70;99.90
11025;DHT22;22890;51.820;8.682;2022-11-14T17:41:11;9.60;99.90
11025;DHT22;22890;51.820;8.682;2022-11-14T17:46:06;9.60;99.90
11025;DHT22;22890;51.820;8.682;2022-11-14T17:48:41;9.70;99.90
11025;DHT22;22890;51.820;8.682;2022-11-14T17:51:13;9.70;99.90
11025;DHT22;22890;51.820;8.682;2022-11-14T17:53:41;9.60;99.90
11025;DHT22;22890;51.820;8.682;2022-11-14T17:56:13;9.60;99.90
11025;DHT22;22890;51.820;8.682;2022-11-14T17:58:40;9.60;99.90
11025;DHT22;22890;51.820;8.682;2022-11-14T18:01:18;9.60;99.90
11025;DHT22;22890;51.820;8.682;2022-11-14T18:03:44;9.60;99.90
11025;DHT22;22890;51.820;8.682;2022-11-14T18:06:16;9.60;99.90
11025;DHT22;22890;51.820;8.682;2022-11-14T18:08:45;9.60;99.90
11025;DHT22;22890;51.820;8.682;2022-11-14T18:11:13;9.60;99.90
11025;DHT22;22890;51.820;8.682;2022-11-14T18:13:40;9.60;99.90
11025;DHT22;22890;51.820;8.682;2022-11-14T18:16:14;9.50;99.90
11025;DHT22;22890;51.820;8.682;2022-11-14T18:18:41;9.60;99.90
11025;DHT22;22890;51.820;8.682;2022-11-14T18:21:08;9.60;99.90
11025;DHT22;22890;51.820;8.682;2022-11-14T18:26:11;9.70;99.90
11025;DHT22;22890;51.820;8.682;2022-11-14T18:28:38;9.70;99.90
11025;DHT22;22890;51.820;8.682;2022-11-14T18:31:05;9.70;99.90
11025;DHT22;22890;51.820;8.682;2022-11-14T18:33:39;9.70;99.90
11025;DHT22;22890;51.820;8.682;2022-11-14T18:36:10;9.70;99.90
11025;DHT22;22890;51.820;8.682;2022-11-14T18:38:37;9.70;99.90
11025;DHT22;22890;51.820;8.682;2022-11-14T18:41:07;9.80;99.90
11025;DHT22;22890;51.820;8.682;2022-11-14T18:43:34;9.80;99.90
11025;DHT22;22890;51.820;8.682;2022-11-14T18:46:13;9.90;99.90
11025;DHT22;22890;51.820;8.682;2022-11-14T18:48:42;9.90;99.90
11025;DHT22;22890;51.820;8.682;2022-11-14T18:51:30;10.00;99.90
11025;DHT22;22890;51.820;8.682;2022-11-14T18:53:57;10.00;99.90
11025;DHT22;22890;51.820;8.682;2022-11-14T18:56:25;10.10;99.90
11025;DHT22;22890;51.820;8.682;2022-11-14T18:58:55;10.10;99.90
11025;DHT22;22890;51.820;8.682;2022-11-14T19:01:27;10.10;99.90
11025;DHT22;22890;51.820;8.682;2022-11-14T19:04:06;10.10;99.90
11025;DHT22;22890;51.820;8.682;2022-11-14T19:06:35;10.10;99.90
11025;DHT22;22890;51.820;8.682;2022-11-14T19:09:08;10.20;99.90
11025;DHT22;22890;51.820;8.682;2022-11-14T19:11:37;10.20;99.90
11025;DHT22;22890;51.820;8.682;2022-11-14T19:14:22;10.30;99.90
11025;DHT22;22890;51.820;8.682;2022-11-14T19:16:49;10.20;99.90